Metar Cercanos

 

LEPA - Palma De Mallorc, Spain
Distance from station: ONO 38km
Actualización: 23/02/2018 03:30
Parcialmente nuboso
Parcialmente nuboso
 Viento del varies
Viento: varies 2 km/h
Temperatura: 1°C
Rocío: 1°C
Humedad: 100%
Barómetro: 1005 hPa
Clouds: Parcialmente nuboso
Visibility: 10 km
Cloud details: Few Clouds 610 m
Parcialmente nuboso 1829 m
2018/02/23 02:30 LEPA 230230Z VRB01KT 9999 FEW020 SCT060 01/01 Q1005 NOSIG
LEMH - Mahon/Menorca Is, Spain
Distance from station: ENE 105km
Actualización: 23/02/2018 03:30
Parcialmente nuboso
Parcialmente nuboso
 Viento del N
Viento: N 17 km/h
Temperatura: 6°C
Sensación frio: 3°C
Rocío: 3°C
Humedad: 81%
Barómetro: 1004 hPa
Clouds: Parcialmente nuboso
Visibility: 7 km
2018/02/23 02:30 LEMH 230230Z AUTO 01009KT 7000 NSC 06/03 Q1004
 
LEIB - Ibiza/Es Codola, Spain
Distance from station: OSO 165km
Actualización: 23/02/2018 00:00
NOT Current
Few Clouds
Few Clouds
 Viento del N
Viento: N 7 km/h
Temperatura: 6°C
Sensación frio: 4°C
Rocío: 4°C
Humedad: 87%
Barómetro: 1007 hPa
Clouds: Few Clouds
Visibility: 10 km
Cloud details: Few Clouds 610 m
2018/02/22 23:00 LEIB 222300Z 35004KT 9999 FEW020 06/04 Q1007 NOSIG
LEBL - Barcelona Airpor, Spain
Distance from station: NNO 225km
Actualización: 23/02/2018 03:30
Muy nuboso
Muy nuboso
 Viento del NNO
Viento: NNO 17 km/h
Temperatura: 6°C
Sensación frio: 3°C
Rocío: 1°C
Humedad: 71%
Barómetro: 1006 hPa
Clouds: Muy nuboso
Visibility: 9 km
Cloud details: Few Clouds 975 m
Muy nuboso 1189 m
2018/02/23 02:30 LEBL 230230Z 33009KT 9000 FEW032 BKN039 06/01 Q1006 NOSIG
 
LEVC - Valencia (civ/Mi, Spain
Distance from station: NO 188km
Actualización: 23/02/2018 03:30
Few Clouds
Few Clouds
 Viento del O
Viento: O 7 km/h
Temperatura: 1°C
Sensación frio: -2°C
Rocío: -5°C
Humedad: 65%
Barómetro: 1006 hPa
Clouds: Few Clouds
Visibility: 10 km
Cloud details: Few Clouds 914 m
2018/02/23 02:30 LEVC 230230Z 27004KT 9999 FEW030 01/M05 Q1006 NOSIG
LEGE - Gerona/Costa Bra, Spain
Distance from station: N 276km
Actualización: 23/02/2018 03:30
Cubierto
Cubierto
 Viento del varies
Viento: varies 2 km/h
Temperatura: 3°C
Rocío: 1°C
Humedad: 87%
Barómetro: 1006 hPa
Clouds: Cubierto
Visibility: 9 km
Cloud details: Cubierto 1494 m
2018/02/23 02:30 LEGE 230230Z VRB01KT 9000 OVC049 03/01 Q1006
 
LEAL - Alicante/El Alte, Spain
Distance from station: OSO 344km
Actualización: 23/02/2018 03:30
Despejado
Despejado
 Viento del ONO
Viento: ONO 7 km/h
Temperatura: 5°C
Sensación frio: 3°C
Rocío: 0°C
Humedad: 70%
Barómetro: 1006 hPa
Resumen: Despejado
Visibility: greater than 10 km
2018/02/23 02:30 LEAL 230230Z 30004KT CAVOK 05/M00 Q1006 NOSIG
LEAM - Almeria Airport, Spain
Distance from station: SSO 56km
Actualización: 23/02/2018 03:30
Despejado
Despejado
 Viento del N
Viento: N 11 km/h
Temperatura: 8°C
Sensación frio: 6°C
Rocío: 2°C
Humedad: 66%
Barómetro: 1005 hPa
Clouds: Despejado
Visibility: 10 km
2018/02/23 02:30 LEAM 230230Z AUTO 35006KT 9999 NCD 08/02 Q1005
 
LEZG - Zaragoza (mil/Ci, Spain
Distance from station: NO 431km
Actualización: 23/02/2018 03:30
Despejado
Despejado
 Viento del ONO
Viento: ONO 24 km/h
Temperatura: 2°C
Sensación frio: -3°C
Rocío: -3°C
Humedad: 70%
Barómetro: 1008 hPa
Resumen: Despejado
Visibility: greater than 10 km
2018/02/23 02:30 LEZG 230230Z 29013KT CAVOK 02/M03 Q1008
LEMD - Madrid/Barajas, Spain
Distance from station: ONO 234km
Actualización: 23/02/2018 03:30
Despejado
Despejado
 Viento del NE
Viento: NE 6 km/h
Temperatura: -1°C
Rocío: -11°C
Humedad: 47%
Barómetro: 1007 hPa
Resumen: Despejado
Visibility: greater than 10 km
2018/02/23 02:30 LEMD 230230Z 04003KT 010V080 CAVOK M01/M11 Q1007 NOSIG
 
LEGR - Granada Airport, Spain
Distance from station: OSO 62km
Actualización: 23/02/2018 03:30
Despejado
Despejado
 Viento del SSO
Viento: SSO 4 km/h
Temperatura: -2°C
Rocío: -5°C
Humedad: 80%
Barómetro: 1006 hPa
Clouds: Despejado
Visibility: 10 km
2018/02/23 02:30 LEGR 230230Z AUTO 21002KT 9999 NCD M02/M05 Q1006
LEMG - Malaga (civ/Mil), Spain
Distance from station: OSO 227km
Actualización: 23/02/2018 03:30
Despejado
Despejado
 Viento del O
Viento: O 20 km/h
Temperatura: 11°C
Rocío: -4°C
Humedad: 35%
Barómetro: 1005 hPa
Resumen: Despejado
Visibility: greater than 10 km
2018/02/23 02:30 LEMG 230230Z 28011KT CAVOK 11/M04 Q1005 NOSIG
 
LEZL - Sevilla (civ/Mil, Spain
Distance from station: S 318km
Actualización: 23/02/2018 03:30
Despejado
Despejado
 Viento del calm
Viento: Calma
Temperatura: 3°C
Rocío: 0°C
Humedad: 81%
Barómetro: 1006 hPa
Resumen: Despejado
Visibility: greater than 10 km
2018/02/23 02:30 LEZL 230230Z 00000KT CAVOK 03/00 Q1006 NOSIG
LEVT - Vitoria, Spain
Distance from station: NO 226km
Actualización: 23/02/2018 03:30
Parcialmente nuboso
Parcialmente nuboso
 Viento del NO
Viento: NO 13 km/h
Temperatura: 0°C
Sensación frio: -4°C
Rocío: -2°C
Humedad: 87%
Barómetro: 1010 hPa
Clouds: Parcialmente nuboso
Visibility: 9 km
Cloud details: Few Clouds 914 m
Parcialmente nuboso 1524 m
2018/02/23 02:30 LEVT 230230Z 31007KT 9000 FEW030 SCT050 M00/M02 Q1010
 
LEBB - Bilbao/Sondica, Spain
Distance from station: NNO 235km
Actualización: 23/02/2018 03:30
Muy nuboso
Muy nuboso
 Viento del varies
Viento: varies 4 km/h
Temperatura: 1°C
Rocío: 0°C
Humedad: 93%
Barómetro: 1012 hPa
Clouds: Muy nuboso
Visibility: 10 km
Cloud details: Few Clouds 1158 m
Parcialmente nuboso 1372 m
Muy nuboso 1737 m
2018/02/23 02:30 LEBB 230230Z AUTO VRB02KT 9999 FEW038/// SCT045/// BKN057/// 01/M00 Q1012
LESO - San Sebastian/Fu, Spain
Distance from station: N 231km
Actualización: 23/02/2018 03:30
Despejado
Despejado
 Viento del SSO
Viento: SSO 6 km/h
Temperatura: 1°C
Rocío: -1°C
Humedad: 87%
Barómetro: 1012 hPa
Clouds: Despejado
Visibility: 8 km
2018/02/23 02:30 LESO 230230Z AUTO 20003KT 160V250 8000 NCD 01/M01 Q1012
 
LEVD - Valladolid(Mil/C, Spain
Distance from station: ONO 239km
Actualización: 22/02/2018 21:30
NOT Current
Despejado
Despejado
 Viento del ENE
Viento: ENE 17 km/h
Temperatura: -1°C
Sensación frio: -6°C
Rocío: -8°C
Humedad: 59%
Barómetro: 1009 hPa
Resumen: Despejado
Visibility: greater than 10 km
2018/02/22 20:30 LEVD 222030Z 07009KT CAVOK M01/M08 Q1009
LESA - Salamanca (civ/M, Spain
Distance from station: ONO 349km
Actualización: 22/02/2018 21:00
NOT Current
Despejado
Despejado
 Viento del E
Viento: E 13 km/h
Temperatura: 0°C
Sensación frio: -4°C
Rocío: -7°C
Humedad: 60%
Barómetro: 1009 hPa
Resumen: Despejado
Visibility: greater than 10 km
2018/02/22 20:00 LESA 222000Z 08007KT CAVOK 00/M07 Q1009
 
LEXJ - Santander/Paraya, Spain
Distance from station: NNO 247km
Actualización: 23/02/2018 03:30
Muy nuboso
Muy nuboso
 Viento del OSO
Viento: OSO 6 km/h
Temperatura: 3°C
Rocío: 0°C
Humedad: 81%
Barómetro: 1012 hPa
Clouds: Muy nuboso
Visibility: 6 km
Cloud details: Muy nuboso 1829 m
2018/02/23 02:30 LEXJ 230230Z AUTO 25003KT 6000 BKN060 03/00 Q1012
LEAS - Asturias/Aviles, Spain
Distance from station: NO 214km
Actualización: 23/02/2018 03:30
Despejado
Despejado
 Viento del ESE
Viento: ESE 6 km/h
Temperatura: 3°C
Rocío: -1°C
Humedad: 75%
Barómetro: 1011 hPa
Clouds: Despejado
Visibility: 6 km
2018/02/23 02:30 LEAS 230230Z AUTO 12003KT 080V170 6000 NCD 03/M01 Q1011
 
LECO - La Coruna/Alvedr, Spain
Distance from station: ONO 222km
Actualización: 23/02/2018 03:30
Mist, Parcialmente nuboso
Mist, Parcialmente nuboso
 Viento del SSE
Viento: SSE 6 km/h
Temperatura: 0°C
Rocío: 0°C
Humedad: 100%
Barómetro: 1008 hPa
Resumen: Mist
Clouds: Parcialmente nuboso
Visibility: 5 km
2018/02/23 02:30 LECO 230230Z AUTO 16003KT 120V190 4600 BR NSC 00/00 Q1008
LEVX - Vigo/Peinador, Spain
Distance from station: O 214km
Actualización: 23/02/2018 03:30
Parcialmente nuboso
Parcialmente nuboso
 Viento del SO
Viento: SO 9 km/h
Temperatura: 4°C
Sensación frio: 2°C
Rocío: 3°C
Humedad: 93%
Barómetro: 1007 hPa
Clouds: Parcialmente nuboso
Visibility: 7 km
2018/02/23 02:30 LEVX 230230Z 22005KT 180V260 7000 NSC 04/03 Q1007 NOSIG